Time;durP1;ratioP1;P1;durP2;ratioP2;P2;SDS_P1;SDS_P2;PMS_P1;PMS_P2;Temp;Humidity;BMP_temperature;BMP_pressure;BME280_temperature;BME280_humidity;BME280_pressure;Samples;Min_cycle;Max_cycle;Signal;HPM_P1;HPM_P2
2022/03/13 00:01:47;;;;;;;18.67;15.25;;;6.30;60.60;;;;;;6098355;23;20189;-81
2022/03/13 00:04:15;;;;;;;19.23;14.60;;;6.30;60.90;;;;;;6104212;23;20223;-80
2022/03/13 00:06:46;;;;;;;16.35;14.65;;;6.30;61.10;;;;;;6109773;23;20295;-80
2022/03/13 00:09:14;;;;;;;17.95;14.80;;;6.20;61.20;;;;;;6100588;23;20191;-80
2022/03/13 00:11:42;;;;;;;18.88;14.80;;;6.20;61.70;;;;;;6110279;23;20547;-80
2022/03/13 00:14:10;;;;;;;17.48;15.68;;;6.10;61.80;;;;;;6092236;23;20212;-80
2022/03/13 00:16:37;;;;;;;20.33;15.45;;;6.00;61.90;;;;;;6101674;23;20222;-81
2022/03/13 00:19:06;;;;;;;17.77;15.88;;;6.00;62.20;;;;;;6094092;23;20306;-80
2022/03/13 00:21:35;;;;;;;16.85;14.55;;;5.90;62.00;;;;;;6111922;23;20187;-80
2022/03/13 00:24:03;;;;;;;19.65;15.02;;;5.90;62.00;;;;;;6111927;23;20302;-80
2022/03/13 00:26:34;;;;;;;16.92;14.95;;;5.80;61.90;;;;;;6106721;23;20235;-80
2022/03/13 00:29:01;;;;;;;20.38;15.15;;;5.80;61.90;;;;;;6109688;23;20260;-80
2022/03/13 00:31:28;;;;;;;20.35;16.50;;;5.70;62.30;;;;;;6113044;23;20226;-79
2022/03/13 00:33:55;;;;;;;15.98;14.27;;;5.70;62.60;;;;;;6105342;23;20279;-79
2022/03/13 00:36:23;;;;;;;18.30;15.52;;;5.70;62.70;;;;;;6103113;23;20234;-79
2022/03/13 00:38:51;;;;;;;17.02;15.20;;;5.70;62.50;;;;;;6113009;23;20206;-79
2022/03/13 00:41:19;;;;;;;17.05;14.85;;;5.60;62.40;;;;;;6109419;23;20278;-79
2022/03/13 00:43:46;;;;;;;19.10;15.63;;;5.60;62.60;;;;;;6110984;23;20211;-79
2022/03/13 00:46:13;;;;;;;17.90;16.00;;;5.60;62.80;;;;;;6113215;23;20207;-79
2022/03/13 00:48:41;;;;;;;18.50;15.45;;;5.60;62.90;;;;;;6104384;23;20183;-79
2022/03/13 00:51:08;;;;;;;18.15;16.20;;;5.50;63.20;;;;;;6114241;23;20679;-79
2022/03/13 00:53:34;;;;;;;19.02;17.00;;;5.50;63.50;;;;;;6106064;23;20188;-79
2022/03/13 00:56:04;;;;;;;17.55;15.57;;;5.40;63.90;;;;;;6101224;23;20216;-79
2022/03/13 00:58:31;;;;;;;19.27;16.50;;;5.40;64.30;;;;;;6105440;23;20187;-79
2022/03/13 01:00:59;;;;;;;20.75;16.33;;;5.40;64.70;;;;;;6112849;23;20206;-79
2022/03/13 01:03:48;;;;;;;17.92;15.82;;;5.30;64.60;;;;;;6105769;23;20727;-79
2022/03/13 01:06:16;;;;;;;20.00;16.90;;;5.30;64.90;;;;;;6105796;23;20247;-79
2022/03/13 01:08:44;;;;;;;17.38;15.57;;;5.20;65.00;;;;;;6110392;23;20192;-79
2022/03/13 01:11:13;;;;;;;18.73;16.50;;;5.10;65.10;;;;;;6112634;23;20188;-79
2022/03/13 01:13:39;;;;;;;19.02;15.80;;;5.10;65.40;;;;;;6110912;23;20216;-79
2022/03/13 01:16:14;;;;;;;17.60;15.43;;;5.10;65.60;;;;;;6118340;23;20242;-79
2022/03/13 01:18:44;;;;;;;20.73;16.58;;;5.10;65.50;;;;;;6110124;23;20667;-79
2022/03/13 01:21:11;;;;;;;17.98;16.17;;;5.00;65.60;;;;;;6106364;23;20734;-79
2022/03/13 01:23:39;;;;;;;18.27;15.60;;;5.00;65.90;;;;;;6116337;23;20788;-79
2022/03/13 01:26:39;;;;;;;18.83;16.35;;;5.00;65.70;;;;;;6107710;23;20265;-79
2022/03/13 01:29:08;;;;;;;17.05;14.63;;;4.90;65.70;;;;;;6116602;23;20210;-79
2022/03/13 01:31:37;;;;;;;21.38;16.60;;;4.90;66.00;;;;;;6105640;23;20230;-79
2022/03/13 01:34:06;;;;;;;19.67;15.77;;;4.80;66.20;;;;;;6118059;23;20270;-79
2022/03/13 01:36:33;;;;;;;17.15;15.40;;;4.70;66.60;;;;;;6112778;23;20793;-79
2022/03/13 01:39:01;;;;;;;17.08;15.15;;;4.70;67.00;;;;;;6118521;23;20188;-78
2022/03/13 01:41:33;;;;;;;17.13;14.30;;;4.60;66.70;;;;;;6103982;23;20248;-79
2022/03/13 01:44:02;;;;;;;18.30;14.80;;;4.50;66.20;;;;;;6093972;23;20204;-79
2022/03/13 01:46:29;;;;;;;20.95;16.08;;;4.40;65.60;;;;;;6112111;23;20269;-79
2022/03/13 01:48:58;;;;;;;17.73;13.73;;;4.30;65.30;;;;;;6102493;23;20282;-79
2022/03/13 01:51:26;;;;;;;15.32;13.02;;;4.30;65.20;;;;;;6116363;23;20404;-79
2022/03/13 01:53:55;;;;;;;16.55;13.57;;;4.30;65.10;;;;;;6114352;23;20196;-79
2022/03/13 01:56:23;;;;;;;18.02;13.82;;;4.30;65.10;;;;;;6109044;23;20218;-79
2022/03/13 01:58:52;;;;;;;18.70;14.13;;;4.30;65.50;;;;;;6115872;23;20371;-79
2022/03/13 02:01:24;;;;;;;18.77;14.57;;;4.30;65.80;;;;;;6111074;23;20198;-79
2022/03/13 02:03:52;;;;;;;17.27;15.48;;;4.30;66.20;;;;;;6110029;23;20657;-79
2022/03/13 02:06:20;;;;;;;18.25;15.07;;;4.30;66.70;;;;;;6108589;23;20203;-79
2022/03/13 02:08:48;;;;;;;18.42;15.75;;;4.20;67.40;;;;;;6108338;23;20583;-79
2022/03/13 02:11:16;;;;;;;20.50;15.35;;;4.10;68.30;;;;;;6092710;23;20266;-79
2022/03/13 02:13:44;;;;;;;17.73;15.80;;;4.00;69.70;;;;;;6110064;23;20202;-79
2022/03/13 02:16:11;;;;;;;20.75;17.10;;;4.00;71.00;;;;;;6113058;23;20283;-79
2022/03/13 02:18:40;;;;;;;19.92;15.50;;;4.00;71.50;;;;;;6111629;23;20188;-79
2022/03/13 02:21:07;;;;;;;19.85;16.45;;;4.00;71.80;;;;;;6098767;23;20199;-79
2022/03/13 02:23:37;;;;;;;20.63;16.27;;;3.90;72.50;;;;;;6113977;23;20202;-79
2022/03/13 02:26:06;;;;;;;23.30;16.90;;;3.90;73.30;;;;;;6107203;23;20293;-79
2022/03/13 02:28:35;;;;;;;21.70;17.98;;;3.80;74.10;;;;;;6099716;23;20191;-79
2022/03/13 02:31:04;;;;;;;19.88;16.92;;;3.70;74.40;;;;;;6106835;23;20184;-79
2022/03/13 02:33:31;;;;;;;19.38;16.70;;;3.70;74.70;;;;;;6095828;23;20550;-79
2022/03/13 02:36:00;;;;;;;20.75;16.52;;;3.60;75.70;;;;;;6114339;23;20257;-79
2022/03/13 02:38:30;;;;;;;21.90;17.75;;;3.60;76.80;;;;;;6104549;23;20274;-79
2022/03/13 02:40:59;;;;;;;20.95;17.80;;;3.60;77.60;;;;;;6118610;23;20281;-79
2022/03/13 02:43:27;;;;;;;21.90;17.70;;;3.50;78.40;;;;;;6112825;23;20267;-79
2022/03/13 02:45:54;;;;;;;21.63;17.52;;;3.50;79.60;;;;;;6103806;23;20234;-79
2022/03/13 02:48:21;;;;;;;21.67;18.00;;;3.50;80.40;;;;;;6114569;23;20191;-79
2022/03/13 02:50:48;;;;;;;21.80;18.35;;;3.50;81.10;;;;;;6104569;23;20188;-79
2022/03/13 02:53:17;;;;;;;21.35;17.35;;;3.50;81.90;;;;;;6099264;23;20188;-79
2022/03/13 02:55:45;;;;;;;21.58;18.55;;;3.50;82.50;;;;;;6101810;23;20212;-79
2022/03/13 02:58:13;;;;;;;23.77;18.42;;;3.60;82.80;;;;;;6117273;23;20187;-79
2022/03/13 03:00:44;;;;;;;21.05;16.98;;;3.60;83.10;;;;;;6114958;23;20576;-78
2022/03/13 03:03:14;;;;;;;23.52;18.13;;;3.60;83.40;;;;;;6100360;23;20230;-79
2022/03/13 03:05:41;;;;;;;19.77;16.75;;;3.60;83.70;;;;;;6113086;23;20330;-83
2022/03/13 03:08:09;;;;;;;21.83;17.60;;;3.60;83.60;;;;;;6109371;23;20672;-79
2022/03/13 03:10:37;;;;;;;20.98;17.00;;;3.60;83.60;;;;;;6110557;23;20266;-78
2022/03/13 03:13:04;;;;;;;19.60;16.42;;;3.60;83.90;;;;;;6118542;23;20187;-79
2022/03/13 03:15:33;;;;;;;19.23;16.83;;;3.60;83.90;;;;;;6099189;23;20294;-78
2022/03/13 03:18:01;;;;;;;21.38;16.85;;;3.60;84.00;;;;;;6099101;23;20188;-79
2022/03/13 03:20:27;;;;;;;21.30;18.10;;;3.60;84.30;;;;;;6103277;23;20199;-79
2022/03/13 03:22:55;;;;;;;20.42;16.85;;;3.50;84.50;;;;;;6111223;23;20270;-78
2022/03/13 03:25:24;;;;;;;21.55;17.10;;;3.60;84.90;;;;;;6104929;23;20235;-79
2022/03/13 03:27:52;;;;;;;25.23;18.80;;;3.50;84.60;;;;;;6108333;23;20587;-79
2022/03/13 03:30:22;;;;;;;18.20;15.35;;;3.50;84.60;;;;;;6111987;23;20183;-79
2022/03/13 03:32:52;;;;;;;20.98;16.40;;;3.50;84.80;;;;;;6106939;23;20715;-79
2022/03/13 03:35:20;;;;;;;19.00;16.88;;;3.50;84.90;;;;;;6118311;23;20214;-79
2022/03/13 03:37:47;;;;;;;21.30;16.17;;;3.40;84.80;;;;;;6112821;23;20255;-79
2022/03/13 03:40:14;;;;;;;18.15;15.35;;;3.40;84.90;;;;;;6098057;23;20893;-79
2022/03/13 03:42:41;;;;;;;21.45;17.35;;;3.30;85.50;;;;;;6108429;23;20208;-79
2022/03/13 03:45:11;;;;;;;18.90;16.17;;;3.30;86.30;;;;;;6114557;23;20225;-78
2022/03/13 03:47:38;;;;;;;20.27;17.85;;;3.30;86.90;;;;;;6104213;23;20582;-79
2022/03/13 03:50:07;;;;;;;21.15;16.75;;;3.20;87.20;;;;;;6109305;23;20271;-78
2022/03/13 03:52:34;;;;;;;18.10;16.05;;;3.20;87.80;;;;;;6108215;23;20183;-79
2022/03/13 03:55:01;;;;;;;21.08;17.92;;;3.10;88.40;;;;;;6119840;23;20211;-79
2022/03/13 03:57:28;;;;;;;20.30;16.85;;;3.00;88.90;;;;;;6071829;23;20780;-78
2022/03/13 03:59:55;;;;;;;20.98;16.52;;;2.90;89.60;;;;;;6108466;23;20192;-79
2022/03/13 04:02:22;;;;;;;24.15;18.02;;;2.90;90.00;;;;;;6108294;23;20304;-79
2022/03/13 04:04:49;;;;;;;19.67;17.00;;;2.80;90.20;;;;;;6091797;23;20210;-77
2022/03/13 04:07:18;;;;;;;20.20;17.40;;;2.80;90.30;;;;;;6110259;23;20553;-79
2022/03/13 04:09:45;;;;;;;19.83;16.98;;;2.80;90.50;;;;;;6112375;23;20658;-79
2022/03/13 04:12:12;;;;;;;20.92;16.10;;;2.70;90.50;;;;;;6110874;23;20189;-79
2022/03/13 04:14:39;;;;;;;21.75;17.40;;;2.70;90.70;;;;;;6105774;23;20270;-78
2022/03/13 04:17:06;;;;;;;19.52;16.23;;;2.60;90.80;;;;;;6108632;23;20193;-79
2022/03/13 04:19:33;;;;;;;20.48;17.23;;;2.60;90.80;;;;;;6096386;23;20542;-79
2022/03/13 04:22:00;;;;;;;18.02;15.38;;;2.60;91.00;;;;;;6117256;23;20212;-78
2022/03/13 04:24:30;;;;;;;19.88;16.50;;;2.50;91.10;;;;;;6104497;23;20211;-78
2022/03/13 04:26:57;;;;;;;19.52;16.60;;;2.50;91.20;;;;;;6107845;23;20710;-78
2022/03/13 04:29:25;;;;;;;22.98;17.27;;;2.50;91.40;;;;;;6113297;23;20657;-79
2022/03/13 04:31:53;;;;;;;18.48;15.98;;;2.50;91.30;;;;;;6104484;23;20191;-79
2022/03/13 04:34:22;;;;;;;18.13;16.20;;;2.50;91.30;;;;;;6108185;23;20293;-79
2022/03/13 04:36:50;;;;;;;18.80;15.98;;;2.50;91.30;;;;;;6102595;23;20548;-79
2022/03/13 04:39:17;;;;;;;19.13;15.77;;;2.40;91.30;;;;;;6113003;23;20275;-78
2022/03/13 04:41:45;;;;;;;19.00;15.48;;;2.40;91.40;;;;;;6116564;23;20234;-78
2022/03/13 04:44:14;;;;;;;19.80;16.15;;;2.40;91.40;;;;;;6098017;23;20208;-79
2022/03/13 04:46:42;;;;;;;19.00;15.77;;;2.40;91.40;;;;;;6102357;23;20226;-78
2022/03/13 04:49:09;;;;;;;17.95;14.93;;;2.40;91.30;;;;;;6115456;23;20183;-78
2022/03/13 04:51:39;;;;;;;18.90;15.80;;;2.40;91.30;;;;;;6108696;23;20222;-79
2022/03/13 04:54:06;;;;;;;20.27;17.23;;;2.30;91.40;;;;;;6107674;23;20255;-78
2022/03/13 04:56:34;;;;;;;20.55;16.48;;;2.30;91.60;;;;;;6101077;23;20216;-78
2022/03/13 04:59:02;;;;;;;19.35;16.27;;;2.30;91.60;;;;;;6099227;23;20193;-78
2022/03/13 05:01:29;;;;;;;21.65;15.80;;;2.20;91.70;;;;;;6103015;23;20596;-78
2022/03/13 05:03:56;;;;;;;18.50;15.60;;;2.20;91.90;;;;;;6112996;23;20599;-78
2022/03/13 05:06:22;;;;;;;20.45;16.50;;;2.10;92.10;;;;;;6105832;23;20223;-78
2022/03/13 05:08:50;;;;;;;19.33;16.08;;;2.10;92.50;;;;;;6113157;23;20639;-78
2022/03/13 05:11:17;;;;;;;21.20;17.10;;;2.00;92.70;;;;;;6113456;23;20408;-78
2022/03/13 05:13:44;;;;;;;21.40;16.27;;;2.00;93.00;;;;;;6108217;23;20263;-78
2022/03/13 05:16:13;;;;;;;18.77;15.95;;;1.90;93.30;;;;;;6116500;23;20194;-79
2022/03/13 05:18:40;;;;;;;23.55;17.23;;;1.90;93.50;;;;;;6106021;23;20208;-79
2022/03/13 05:21:07;;;;;;;18.73;15.95;;;1.90;93.70;;;;;;6111425;23;20650;-77
2022/03/13 05:23:34;;;;;;;18.45;16.23;;;1.90;93.90;;;;;;6114465;23;20536;-80
2022/03/13 05:26:01;;;;;;;21.38;15.95;;;1.80;94.00;;;;;;6113274;23;20227;-77
2022/03/13 05:28:28;;;;;;;20.00;15.45;;;1.90;94.10;;;;;;6111582;23;20208;-79
2022/03/13 05:30:56;;;;;;;16.67;13.15;;;1.80;94.00;;;;;;6096652;23;20188;-79
2022/03/13 05:33:24;;;;;;;16.38;13.98;;;1.80;93.90;;;;;;6109923;23;20188;-79
2022/03/13 05:35:51;;;;;;;15.88;14.05;;;1.80;93.70;;;;;;6113640;23;20641;-79
2022/03/13 05:38:18;;;;;;;15.85;13.57;;;1.80;93.30;;;;;;6109748;23;20242;-79
2022/03/13 05:40:45;;;;;;;17.17;14.48;;;1.70;93.10;;;;;;6106589;23;20259;-80
2022/03/13 05:43:12;;;;;;;15.90;13.15;;;1.80;93.10;;;;;;6115447;23;20307;-80
2022/03/13 05:45:41;;;;;;;16.17;13.35;;;1.70;93.00;;;;;;6108495;23;20289;-79
2022/03/13 05:48:10;;;;;;;14.98;13.07;;;1.70;93.10;;;;;;6110007;23;20647;-79
2022/03/13 05:50:39;;;;;;;17.33;12.73;;;1.70;93.00;;;;;;6119140;23;20585;-79
2022/03/13 05:53:06;;;;;;;15.32;12.85;;;1.70;92.60;;;;;;6119104;23;20185;-79
2022/03/13 05:55:33;;;;;;;13.27;10.90;;;1.70;92.10;;;;;;6119221;23;20200;-79
2022/03/13 05:58:01;;;;;;;13.02;11.77;;;1.70;91.60;;;;;;6118677;23;20235;-79
2022/03/13 06:00:31;;;;;;;12.40;10.82;;;1.60;91.20;;;;;;6112323;23;20239;-80
2022/03/13 06:02:58;;;;;;;13.07;10.35;;;1.60;91.10;;;;;;6116591;23;20186;-79
2022/03/13 06:05:25;;;;;;;10.25;9.13;;;1.70;90.90;;;;;;6119420;23;20295;-79
2022/03/13 06:07:55;;;;;;;12.23;10.32;;;1.80;90.60;;;;;;6111821;23;20176;-79
2022/03/13 06:10:23;;;;;;;10.80;9.25;;;1.90;90.20;;;;;;6116256;23;20520;-79
2022/03/13 06:12:51;;;;;;;11.75;9.43;;;2.10;89.70;;;;;;6108319;23;20742;-80
2022/03/13 06:15:18;;;;;;;11.65;9.35;;;2.20;88.30;;;;;;6107945;23;20203;-79
2022/03/13 06:17:47;;;;;;;13.35;10.18;;;2.40;87.20;;;;;;6115590;23;20246;-80
2022/03/13 06:20:15;;;;;;;11.73;9.20;;;2.60;85.80;;;;;;6111176;23;20187;-79
2022/03/13 06:22:44;;;;;;;11.88;9.85;;;2.70;85.30;;;;;;6111138;23;20186;-79
2022/03/13 06:25:14;;;;;;;11.30;9.25;;;2.90;84.10;;;;;;6105135;23;20222;-80
2022/03/13 06:27:42;;;;;;;13.88;9.13;;;3.10;82.30;;;;;;6109969;23;20192;-78
2022/03/13 06:30:13;;;;;;;12.45;9.77;;;3.30;81.10;;;;;;6106555;23;20276;-78
2022/03/13 06:32:41;;;;;;;12.45;8.60;;;3.50;79.90;;;;;;6106236;23;20226;-78
2022/03/13 06:35:10;;;;;;;10.10;8.65;;;3.50;78.80;;;;;;6103748;23;20208;-79
2022/03/13 06:37:37;;;;;;;10.73;9.18;;;3.60;78.70;;;;;;6110758;23;20190;-79
2022/03/13 06:40:06;;;;;;;10.63;9.10;;;3.80;77.90;;;;;;6109197;23;20191;-79
2022/03/13 06:42:35;;;;;;;11.32;9.82;;;4.10;77.50;;;;;;6102846;23;20191;-78
2022/03/13 06:45:02;;;;;;;9.93;8.93;;;4.30;75.90;;;;;;6111852;23;20210;-78
2022/03/13 06:47:29;;;;;;;9.02;8.10;;;4.50;75.00;;;;;;6102916;23;20195;-79
2022/03/13 06:49:57;;;;;;;9.90;8.90;;;4.60;74.20;;;;;;6111970;23;20275;-79
2022/03/13 06:52:24;;;;;;;10.68;9.68;;;4.70;73.30;;;;;;6108414;23;20519;-78
2022/03/13 06:54:52;;;;;;;10.52;8.50;;;4.90;73.60;;;;;;6111680;23;20208;-79
2022/03/13 06:57:19;;;;;;;9.73;8.70;;;5.10;72.00;;;;;;6098195;23;20698;-77
2022/03/13 06:59:47;;;;;;;11.05;8.93;;;5.40;71.10;;;;;;6108256;23;20195;-77
2022/03/13 07:02:14;;;;;;;9.13;8.10;;;5.70;69.70;;;;;;6101658;23;20210;-78
2022/03/13 07:04:41;;;;;;;8.95;8.05;;;5.90;68.70;;;;;;6111520;23;20208;-76
2022/03/13 07:07:08;;;;;;;9.65;8.65;;;6.10;67.30;;;;;;6107913;23;20298;-76
2022/03/13 07:09:36;;;;;;;9.25;7.70;;;6.30;68.20;;;;;;6110658;23;20213;-77
2022/03/13 07:12:05;;;;;;;9.05;8.15;;;6.50;65.20;;;;;;6111127;23;20965;-80
2022/03/13 07:14:33;;;;;;;9.43;8.52;;;6.60;64.80;;;;;;6113854;22;21557;-80
2022/03/13 07:17:01;;;;;;;8.93;8.02;;;6.80;65.00;;;;;;6117647;23;20275;-80
2022/03/13 07:19:28;;;;;;;9.15;8.15;;;7.30;63.60;;;;;;6107513;23;20187;-80
2022/03/13 07:21:55;;;;;;;10.85;9.25;;;7.70;63.30;;;;;;6100981;23;20222;-80
2022/03/13 07:24:22;;;;;;;8.98;8.18;;;7.90;62.10;;;;;;6111634;23;20854;-80
2022/03/13 07:26:50;;;;;;;12.13;8.40;;;8.20;61.20;;;;;;6115370;23;20235;-80
2022/03/13 07:29:17;;;;;;;9.70;8.70;;;8.20;59.50;;;;;;6112312;23;20238;-80
2022/03/13 07:31:44;;;;;;;8.98;8.13;;;8.20;59.50;;;;;;6101839;23;20242;-81
2022/03/13 07:34:13;;;;;;;9.88;8.35;;;8.10;59.20;;;;;;6115741;23;20208;-80
2022/03/13 07:36:40;;;;;;;9.20;8.30;;;8.10;59.00;;;;;;6110263;23;20290;-79
2022/03/13 07:39:06;;;;;;;8.93;8.13;;;8.30;59.20;;;;;;6099839;23;20244;-80
2022/03/13 07:41:34;;;;;;;9.57;8.57;;;8.40;58.80;;;;;;6111751;23;21580;-80
2022/03/13 07:44:03;;;;;;;9.20;8.30;;;8.60;58.50;;;;;;6109386;23;20562;-80
2022/03/13 07:46:31;;;;;;;9.55;8.55;;;8.90;58.60;;;;;;6113370;23;20240;-80
2022/03/13 07:48:58;;;;;;;9.23;8.32;;;9.40;58.60;;;;;;6108994;23;20244;-80
2022/03/13 07:51:26;;;;;;;9.05;8.07;;;9.70;57.20;;;;;;6109873;23;20268;-80
2022/03/13 07:53:53;;;;;;;9.13;8.07;;;9.80;56.70;;;;;;6107608;23;20217;-80
2022/03/13 07:56:20;;;;;;;9.43;8.43;;;10.00;56.20;;;;;;6116189;23;20185;-80
2022/03/13 07:58:47;;;;;;;9.88;8.75;;;10.30;54.30;;;;;;6107778;23;20381;-80
2022/03/13 08:01:14;;;;;;;9.90;9.00;;;10.60;54.10;;;;;;6109311;23;20187;-80
2022/03/13 08:03:44;;;;;;;9.25;8.35;;;11.00;53.40;;;;;;6108150;23;20190;-80
2022/03/13 08:06:11;;;;;;;10.25;8.75;;;11.30;52.40;;;;;;6103124;23;20207;-80
2022/03/13 08:08:39;;;;;;;10.48;9.48;;;11.30;52.10;;;;;;6112888;23;20277;-80
2022/03/13 08:11:07;;;;;;;11.38;10.30;;;11.30;52.20;;;;;;6108262;23;20190;-80
2022/03/13 08:13:33;;;;;;;12.15;9.32;;;11.40;52.20;;;;;;6112664;23;20182;-79
2022/03/13 08:16:00;;;;;;;10.63;9.63;;;11.40;52.60;;;;;;6106130;23;21546;-81
2022/03/13 08:18:29;;;;;;;11.43;10.32;;;11.50;52.60;;;;;;6110184;23;20191;-80
2022/03/13 08:20:56;;;;;;;12.40;11.10;;;11.80;52.70;;;;;;6104840;23;20946;-80
2022/03/13 08:23:23;;;;;;;12.13;10.93;;;12.20;52.10;;;;;;6101087;23;20238;-80
2022/03/13 08:25:52;;;;;;;12.55;11.35;;;12.50;51.70;;;;;;6105517;23;20219;-80
2022/03/13 08:28:19;;;;;;;13.20;11.93;;;12.70;52.10;;;;;;6101219;23;20593;-80
2022/03/13 08:30:46;;;;;;;12.77;11.45;;;12.80;50.30;;;;;;6102763;23;20215;-80
2022/03/13 08:33:13;;;;;;;14.10;12.65;;;12.70;50.20;;;;;;6114663;23;20187;-80
2022/03/13 08:35:40;;;;;;;13.10;11.73;;;12.50;50.10;;;;;;6114140;23;20207;-80
2022/03/13 08:38:07;;;;;;;14.88;12.07;;;12.40;50.30;;;;;;6115745;23;20183;-80
2022/03/13 08:40:34;;;;;;;13.68;12.27;;;12.70;50.50;;;;;;6108499;23;20233;-80
2022/03/13 08:43:03;;;;;;;13.63;12.23;;;12.80;50.60;;;;;;6117077;23;20270;-81
2022/03/13 08:45:30;;;;;;;13.77;12.40;;;13.00;49.60;;;;;;6116820;23;20278;-81
2022/03/13 08:47:57;;;;;;;13.07;11.77;;;13.10;49.70;;;;;;6111617;23;20536;-80
2022/03/13 08:50:24;;;;;;;13.93;12.43;;;13.30;49.40;;;;;;6117185;23;20184;-80
2022/03/13 08:52:51;;;;;;;14.70;13.25;;;13.30;49.10;;;;;;6107147;23;20188;-81
2022/03/13 08:55:18;;;;;;;13.00;11.80;;;13.60;49.40;;;;;;6111147;23;20230;-80
2022/03/13 08:57:46;;;;;;;14.40;12.57;;;13.70;48.60;;;;;;6118975;23;20266;-80
2022/03/13 09:00:17;;;;;;;14.00;12.60;;;13.80;48.30;;;;;;6113398;23;20266;-81
2022/03/13 09:02:44;;;;;;;14.02;12.63;;;14.00;48.40;;;;;;6115032;23;20192;-80
2022/03/13 09:05:11;;;;;;;13.32;12.00;;;14.60;47.80;;;;;;6119205;23;20195;-81
2022/03/13 09:07:38;;;;;;;14.30;12.90;;;14.90;47.60;;;;;;6116901;23;20219;-81
2022/03/13 09:10:07;;;;;;;14.43;13.13;;;15.10;47.00;;;;;;6117809;23;20434;-80
2022/03/13 09:12:35;;;;;;;15.27;13.77;;;15.30;47.10;;;;;;6117731;23;20448;-80
2022/03/13 09:15:02;;;;;;;15.30;13.80;;;15.20;47.30;;;;;;6115011;23;20546;-80
2022/03/13 09:17:30;;;;;;;14.00;12.70;;;15.20;46.90;;;;;;6115015;23;20553;-81
2022/03/13 09:19:58;;;;;;;15.40;13.90;;;15.30;47.40;;;;;;6108546;23;20839;-82
2022/03/13 09:22:30;;;;;;;14.70;13.30;;;15.80;47.70;;;;;;6113037;23;20445;-82
2022/03/13 09:24:59;;;;;;;15.50;14.00;;;16.40;46.80;;;;;;6114130;23;20459;-82
2022/03/13 09:27:26;;;;;;;15.70;14.10;;;16.70;46.70;;;;;;6109628;23;20548;-82
2022/03/13 09:29:54;;;;;;;16.90;15.30;;;17.30;46.80;;;;;;6107777;23;20434;-81
2022/03/13 09:32:23;;;;;;;17.10;15.50;;;17.80;45.80;;;;;;6106587;23;21058;-81
2022/03/13 09:34:51;;;;;;;15.43;13.97;;;18.00;45.30;;;;;;6108853;23;20468;-82
2022/03/13 09:37:18;;;;;;;17.07;15.30;;;18.20;45.30;;;;;;6105996;23;20425;-82
2022/03/13 09:39:45;;;;;;;17.03;15.43;;;18.20;45.00;;;;;;6114100;23;20512;-81
2022/03/13 09:42:12;;;;;;;19.20;17.40;;;18.30;45.20;;;;;;6105087;23;20434;-82
2022/03/13 09:44:39;;;;;;;17.40;15.70;;;18.70;44.80;;;;;;6101380;23;20526;-83
2022/03/13 09:47:07;;;;;;;17.60;15.90;;;18.80;44.70;;;;;;6106896;23;21480;-82
2022/03/13 09:49:35;;;;;;;16.13;14.63;;;19.00;44.40;;;;;;6112210;23;20443;-79
2022/03/13 09:52:06;;;;;;;17.00;15.40;;;19.20;44.40;;;;;;6104994;23;20437;-78
2022/03/13 09:54:33;;;;;;;17.67;16.00;;;19.30;44.10;;;;;;6109542;23;20464;-80
2022/03/13 09:57:02;;;;;;;18.00;16.30;;;19.50;44.00;;;;;;6103045;23;20502;-80
2022/03/13 09:59:29;;;;;;;16.63;14.77;;;20.10;43.80;;;;;;6108098;23;20433;-81
2022/03/13 10:01:57;;;;;;;18.53;16.83;;;20.30;43.20;;;;;;6109864;23;20433;-80
2022/03/13 10:04:24;;;;;;;17.50;15.77;;;20.30;42.90;;;;;;6096934;23;20497;-80
2022/03/13 10:07:07;;;;;;;18.37;16.60;;;20.70;42.90;;;;;;6114320;23;20988;-80
2022/03/13 10:09:36;;;;;;;17.70;16.10;;;21.30;42.50;;;;;;6117360;23;20517;-80
2022/03/13 10:12:06;;;;;;;19.73;17.83;;;21.50;42.00;;;;;;6110082;23;20447;-80
2022/03/13 10:14:34;;;;;;;19.30;17.37;;;21.80;41.20;;;;;;6119754;23;20476;-80
2022/03/13 10:17:01;;;;;;;17.20;15.60;;;22.10;40.90;;;;;;6096248;23;20522;-80
2022/03/13 10:19:31;;;;;;;18.10;16.47;;;22.20;40.90;;;;;;6097624;23;20963;-80
2022/03/13 10:22:08;;;;;;;18.67;16.93;;;21.90;41.10;;;;;;6104115;23;20429;-80
2022/03/13 10:24:42;;;;;;;19.63;17.83;;;22.00;41.00;;;;;;6114836;23;20478;-81
2022/03/13 10:27:12;;;;;;;19.13;17.23;;;21.90;41.00;;;;;;6110750;23;20536;-81
2022/03/13 10:29:40;;;;;;;19.47;17.77;;;22.00;40.90;;;;;;6095063;23;20445;-81
2022/03/13 10:32:08;;;;;;;20.20;18.20;;;21.90;40.10;;;;;;6109584;23;20468;-81
2022/03/13 10:34:36;;;;;;;18.10;16.40;;;21.70;39.80;;;;;;6111830;23;20536;-81
2022/03/13 10:37:04;;;;;;;17.60;16.00;;;21.60;40.90;;;;;;6098243;23;20512;-81
2022/03/13 10:39:34;;;;;;;18.93;17.23;;;22.20;40.70;;;;;;6098901;23;20453;-81
2022/03/13 10:42:03;;;;;;;19.23;17.33;;;22.50;40.00;;;;;;6117482;23;20459;-81
2022/03/13 10:44:34;;;;;;;19.60;17.90;;;22.80;40.00;;;;;;6120419;23;20544;-81
2022/03/13 10:47:03;;;;;;;19.43;17.63;;;22.80;39.80;;;;;;6107766;23;20975;-81
2022/03/13 10:49:48;;;;;;;19.27;17.57;;;23.00;39.70;;;;;;6107440;23;20960;-81
2022/03/13 10:52:29;;;;;;;19.33;17.63;;;23.20;39.10;;;;;;6103157;23;20521;-81
2022/03/13 10:55:15;;;;;;;19.27;17.50;;;22.70;39.30;;;;;;6106214;23;20880;-81
2022/03/13 10:57:48;;;;;;;20.03;18.13;;;22.30;39.80;;;;;;6115661;23;20528;-81
2022/03/13 11:00:16;;;;;;;19.87;18.00;;;21.80;40.40;;;;;;6092488;23;20827;-81
2022/03/13 11:02:43;;;;;;;21.30;19.30;;;21.80;39.90;;;;;;6106595;23;20528;-81
2022/03/13 11:05:10;;;;;;;21.10;19.10;;;21.90;40.30;;;;;;6120263;23;20476;-82
2022/03/13 11:07:37;;;;;;;20.70;18.70;;;21.90;40.20;;;;;;6093331;23;21059;-81
2022/03/13 11:10:08;;;;;;;20.83;18.90;;;21.70;39.90;;;;;;6105617;23;20458;-81
2022/03/13 11:12:35;;;;;;;20.70;18.60;;;21.60;40.00;;;;;;6101479;23;20449;-82
2022/03/13 11:15:03;;;;;;;21.47;19.47;;;21.90;40.00;;;;;;6115689;23;20540;-81
2022/03/13 11:17:32;;;;;;;19.80;18.00;;;22.00;40.20;;;;;;6102209;23;20442;-81
2022/03/13 11:20:01;;;;;;;20.03;18.23;;;22.30;39.90;;;;;;6109215;23;20458;-82
2022/03/13 11:22:29;;;;;;;20.20;18.27;;;22.50;39.80;;;;;;6093038;23;20478;-81
2022/03/13 11:24:58;;;;;;;20.30;18.40;;;22.80;39.80;;;;;;6117662;23;20463;-82
2022/03/13 11:27:27;;;;;;;18.07;16.30;;;23.10;40.10;;;;;;6116274;23;20499;-81
2022/03/13 11:29:57;;;;;;;21.17;19.07;;;23.70;39.80;;;;;;6118484;23;20521;-82
2022/03/13 11:32:35;;;;;;;21.83;19.83;;;24.30;39.00;;;;;;6105571;23;20446;-81
2022/03/13 11:35:20;;;;;;;21.23;19.23;;;24.40;38.80;;;;;;6109381;23;20519;-81
2022/03/13 11:37:49;;;;;;;20.47;18.47;;;24.70;38.70;;;;;;6102321;23;20881;-81
2022/03/13 11:40:19;;;;;;;21.87;19.67;;;25.20;38.50;;;;;;6109455;23;20994;-82
2022/03/13 11:42:49;;;;;;;21.47;19.43;;;25.40;37.80;;;;;;6117159;23;21106;-81
2022/03/13 11:45:34;;;;;;;21.33;19.43;;;25.10;37.20;;;;;;6107351;23;21025;-81
2022/03/13 11:48:41;;;;;;;21.83;19.93;;;24.20;37.70;;;;;;6117821;23;20481;-82
2022/03/13 11:51:08;;;;;;;22.73;20.63;;;23.90;38.60;;;;;;6103113;23;20466;-82
2022/03/13 11:53:48;;;;;;;20.80;18.90;;;24.20;38.20;;;;;;6117393;23;20572;-83
2022/03/13 11:56:27;;;;;;;21.20;19.10;;;24.20;38.30;;;;;;6109467;23;20595;-83
2022/03/13 11:59:00;;;;;;;21.10;19.20;;;24.40;38.60;;;;;;6105505;23;20477;-81
2022/03/13 12:01:36;;;;;;;22.53;20.47;;;24.40;38.50;;;;;;6103917;23;20450;-81
2022/03/13 12:04:23;;;;;;;22.17;20.13;;;24.30;38.40;;;;;;6115583;23;20468;-81
2022/03/13 12:06:52;;;;;;;21.27;19.30;;;24.30;38.40;;;;;;6110882;23;20860;-82
2022/03/13 12:09:19;;;;;;;22.33;20.23;;;24.20;38.40;;;;;;6114375;23;20484;-82
2022/03/13 12:11:50;;;;;;;22.00;20.03;;;24.00;38.30;;;;;;6112727;23;20466;-82
2022/03/13 12:14:20;;;;;;;21.77;19.67;;;23.80;38.20;;;;;;6109542;23;20473;-82
2022/03/13 12:17:04;;;;;;;21.30;19.30;;;23.40;38.20;;;;;;6114801;23;20524;-82
2022/03/13 12:19:39;;;;;;;21.20;19.23;;;23.20;38.70;;;;;;6093927;23;20441;-82
2022/03/13 12:22:06;;;;;;;21.37;19.47;;;23.20;39.00;;;;;;6092035;23;20426;-82
2022/03/13 12:24:34;;;;;;;21.30;19.20;;;23.10;39.20;;;;;;6113965;23;20463;-82
2022/03/13 12:27:03;;;;;;;20.60;18.60;;;23.00;39.10;;;;;;6107816;23;20461;-83
2022/03/13 12:29:32;;;;;;;20.90;18.90;;;23.20;38.80;;;;;;6098439;23;20497;-82
2022/03/13 12:32:01;;;;;;;21.97;19.93;;;23.70;39.10;;;;;;6092093;23;20836;-82
2022/03/13 12:34:29;;;;;;;20.63;18.80;;;24.20;38.60;;;;;;6104981;23;20525;-82
2022/03/13 12:37:02;;;;;;;20.93;19.10;;;24.90;38.20;;;;;;6111219;23;20520;-83
2022/03/13 12:39:30;;;;;;;20.83;18.93;;;25.40;37.50;;;;;;6097874;23;20435;-83
2022/03/13 12:41:58;;;;;;;22.33;20.33;;;25.70;37.30;;;;;;6117935;23;20449;-82
2022/03/13 12:44:27;;;;;;;22.90;20.70;;;25.30;37.60;;;;;;6103774;23;20463;-83